Time;durP1;ratioP1;P1;durP2;ratioP2;P2;SDS_P1;SDS_P2;PMS_P1;PMS_P2;Temp;Humidity;BMP_temperature;BMP_pressure;BME280_temperature;BME280_humidity;BME280_pressure;Samples;Min_cycle;Max_cycle;Signal;HPM_P1;HPM_P2
2021/08/10 00:00:46;;;;;;;15.98;7.35;;;18.40;99.90;;;;;;5054544;28;20021;-79
2021/08/10 00:03:12;;;;;;;11.93;5.60;;;18.20;99.90;;;;;;5054447;28;20540;-80
2021/08/10 00:05:38;;;;;;;18.08;7.57;;;18.10;99.90;;;;;;5054232;28;20021;-79
2021/08/10 00:08:04;;;;;;;17.08;5.85;;;17.80;99.90;;;;;;5054176;28;20079;-80
2021/08/10 00:10:30;;;;;;;13.23;5.72;;;17.90;99.90;;;;;;5054150;28;20021;-80
2021/08/10 00:12:56;;;;;;;11.57;6.18;;;18.10;99.90;;;;;;5054121;28;20035;-79
2021/08/10 00:15:22;;;;;;;11.00;5.93;;;18.20;99.90;;;;;;5036165;28;20033;-80
2021/08/10 00:17:48;;;;;;;10.80;5.43;;;17.90;99.90;;;;;;5054000;28;20109;-80
2021/08/10 00:20:14;;;;;;;13.95;6.22;;;18.40;99.90;;;;;;5054094;28;20013;-80
2021/08/10 00:22:40;;;;;;;11.77;5.60;;;18.40;99.90;;;;;;5053951;28;20021;-79
2021/08/10 00:25:07;;;;;;;11.40;5.43;;;18.40;99.90;;;;;;5053865;28;20032;-78
2021/08/10 00:27:33;;;;;;;14.10;5.55;;;18.50;99.90;;;;;;5053893;28;20029;-79
2021/08/10 00:29:59;;;;;;;14.77;6.20;;;18.20;99.90;;;;;;5035877;28;20389;-80
2021/08/10 00:32:26;;;;;;;14.38;6.82;;;18.00;99.90;;;;;;5053728;28;20058;-80
2021/08/10 00:34:53;;;;;;;12.75;5.82;;;18.00;99.90;;;;;;5053766;28;20099;-80
2021/08/10 00:37:20;;;;;;;10.95;5.80;;;18.30;99.90;;;;;;5035737;28;20036;-80
2021/08/10 00:39:46;;;;;;;11.30;5.70;;;18.20;99.90;;;;;;5053978;28;20036;-80
2021/08/10 00:42:11;;;;;;;18.17;6.72;;;18.50;99.90;;;;;;5053700;28;20470;-79
2021/08/10 00:44:37;;;;;;;;;;;18.50;99.90;;;;;;5053812;28;20045;-80
2021/08/10 00:47:04;;;;;;;15.75;7.63;;;18.40;99.90;;;;;;5053789;28;19991;-80
2021/08/10 00:49:30;;;;;;;11.52;5.63;;;18.40;99.90;;;;;;5053497;28;20029;-78
2021/08/10 00:51:56;;;;;;;15.38;6.43;;;18.20;99.90;;;;;;5053424;28;20075;-80
2021/08/10 00:54:23;;;;;;;10.63;5.97;;;18.40;99.90;;;;;;5053472;28;20104;-79
2021/08/10 00:56:51;;;;;;;13.00;6.20;;;18.30;99.90;;;;;;5053303;28;20028;-80
2021/08/10 00:59:17;;;;;;;10.05;5.95;;;18.30;99.90;;;;;;5035513;28;20489;-80
2021/08/10 01:01:42;;;;;;;16.38;6.13;;;18.30;99.90;;;;;;5051987;28;20029;-80
2021/08/10 01:04:09;;;;;;;;;;;18.20;99.90;;;;;;5035815;28;20112;-80
2021/08/10 01:06:35;;;;;;;13.50;5.80;;;18.30;99.90;;;;;;5035399;28;20284;-78
2021/08/10 01:09:17;;;;;;;13.60;6.28;;;18.10;99.90;;;;;;5053249;28;20028;-80
2021/08/10 01:12:03;;;;;;;14.77;6.55;;;18.00;99.90;;;;;;5035056;28;20397;-79
2021/08/10 01:14:50;;;;;;;10.88;4.97;;;17.80;99.90;;;;;;5052688;28;20044;-80
2021/08/10 01:17:31;;;;;;;13.02;5.57;;;18.00;99.90;;;;;;5053096;28;20167;-79
2021/08/10 01:20:04;;;;;;;14.13;5.80;;;18.20;99.90;;;;;;5053189;28;20021;-78
2021/08/10 01:22:33;;;;;;;13.75;5.88;;;18.20;99.90;;;;;;5053784;28;20029;-81
2021/08/10 01:25:31;;;;;;;16.65;6.28;;;18.00;99.90;;;;;;5053324;28;20013;-80
2021/08/10 01:28:43;;;;;;;15.10;6.30;;;18.10;99.90;;;;;;5053089;28;20028;-79
2021/08/10 01:31:33;;;;;;;15.00;5.97;;;18.20;99.90;;;;;;5016066;28;20453;-79
2021/08/10 01:34:12;;;;;;;14.43;6.25;;;18.00;99.90;;;;;;5052940;28;20025;-80
2021/08/10 01:36:41;;;;;;;16.98;6.55;;;18.10;99.90;;;;;;5052932;28;20025;-79
2021/08/10 01:39:08;;;;;;;21.17;6.80;;;18.10;99.90;;;;;;5052726;28;20036;-79
2021/08/10 01:41:35;;;;;;;14.60;7.10;;;18.20;99.90;;;;;;5052931;28;20020;-80
2021/08/10 01:44:02;;;;;;;17.38;6.40;;;18.10;99.90;;;;;;5052729;28;20387;-80
2021/08/10 01:46:29;;;;;;;14.07;6.05;;;17.90;99.90;;;;;;5053072;28;20013;-79
2021/08/10 01:48:56;;;;;;;14.45;6.35;;;18.00;99.90;;;;;;5053042;28;20021;-78
2021/08/10 01:51:25;;;;;;;15.25;6.07;;;18.00;99.90;;;;;;5052968;28;20021;-79
2021/08/10 01:53:51;;;;;;;11.30;5.75;;;18.00;99.90;;;;;;5052851;28;20021;-80
2021/08/10 01:56:19;;;;;;;20.25;6.30;;;18.10;99.90;;;;;;5052723;28;20013;-80
2021/08/10 01:58:47;;;;;;;15.40;6.90;;;18.00;99.90;;;;;;5052902;28;20028;-78
2021/08/10 02:01:14;;;;;;;15.75;6.43;;;18.00;99.90;;;;;;5052903;28;20151;-79
2021/08/10 02:03:43;;;;;;;19.45;6.90;;;18.00;99.90;;;;;;5052721;28;20396;-79
2021/08/10 02:06:11;;;;;;;16.08;6.38;;;17.90;99.90;;;;;;5052660;28;20074;-80
2021/08/10 02:08:38;;;;;;;18.02;7.30;;;17.80;99.90;;;;;;5052615;28;20036;-78
2021/08/10 02:11:04;;;;;;;17.58;7.05;;;17.80;99.90;;;;;;5052561;28;20100;-81
2021/08/10 02:13:30;;;;;;;20.08;7.82;;;17.70;99.90;;;;;;5037204;28;20055;-78
2021/08/10 02:15:57;;;;;;;;;;;17.70;99.90;;;;;;5056858;28;20477;-80
2021/08/10 02:18:22;;;;;;;13.23;6.53;;;17.80;99.90;;;;;;5056299;28;19912;-79
2021/08/10 02:20:52;;;;;;;19.92;6.63;;;17.80;99.90;;;;;;5038268;28;20082;-78
2021/08/10 02:23:20;;;;;;;18.77;6.78;;;17.80;99.90;;;;;;5056206;28;20021;-78
2021/08/10 02:25:47;;;;;;;19.30;8.13;;;17.80;99.90;;;;;;5038338;28;20124;-80
2021/08/10 02:28:16;;;;;;;16.90;6.43;;;17.90;99.90;;;;;;5056174;28;20060;-79
2021/08/10 02:30:49;;;;;;;17.27;6.60;;;17.70;99.90;;;;;;5056101;28;20032;-78
2021/08/10 02:33:17;;;;;;;17.60;6.95;;;17.70;99.90;;;;;;5056501;28;20048;-79
2021/08/10 02:35:45;;;;;;;17.20;7.13;;;17.70;99.90;;;;;;5056141;28;20040;-80
2021/08/10 02:38:16;;;;;;;15.52;6.70;;;17.80;99.90;;;;;;5037940;28;20025;-81
2021/08/10 02:40:46;;;;;;;15.18;6.60;;;17.90;99.90;;;;;;5056050;28;20017;-80
2021/08/10 02:43:13;;;;;;;16.05;6.82;;;17.90;99.90;;;;;;5056140;28;20017;-79
2021/08/10 02:45:39;;;;;;;16.58;6.57;;;17.90;99.90;;;;;;5057363;28;20041;-78
2021/08/10 02:48:05;;;;;;;17.67;7.28;;;17.70;99.90;;;;;;5055772;28;20036;-79
2021/08/10 02:50:31;;;;;;;;;;;17.70;99.90;;;;;;5056117;28;20021;-80
2021/08/10 02:52:57;;;;;;;19.67;7.13;;;17.70;99.90;;;;;;5056112;28;19999;-78
2021/08/10 02:55:24;;;;;;;16.00;7.75;;;17.60;99.90;;;;;;5055645;28;20036;-81
2021/08/10 02:58:14;;;;;;;15.75;7.10;;;17.60;99.90;;;;;;5055476;28;20473;-80
2021/08/10 03:00:52;;;;;;;18.75;7.57;;;17.70;99.90;;;;;;5055615;28;20098;-78
2021/08/10 03:03:19;;;;;;;18.42;7.75;;;17.70;99.90;;;;;;5055854;28;20021;-79
2021/08/10 03:05:47;;;;;;;17.23;6.93;;;17.70;99.90;;;;;;5055415;28;20029;-79
2021/08/10 03:08:23;;;;;;;15.70;6.68;;;17.70;99.90;;;;;;5055424;28;20505;-80
2021/08/10 03:10:51;;;;;;;17.80;7.13;;;17.70;99.90;;;;;;5055373;28;20478;-79
2021/08/10 03:13:19;;;;;;;17.75;7.22;;;17.60;99.90;;;;;;5055302;28;20021;-80
2021/08/10 03:15:46;;;;;;;17.25;7.43;;;17.60;99.90;;;;;;5055256;28;20040;-79
2021/08/10 03:18:15;;;;;;;14.98;6.38;;;17.50;99.90;;;;;;5055298;28;20390;-79
2021/08/10 03:20:43;;;;;;;16.95;7.30;;;17.70;99.90;;;;;;5055152;28;20032;-79
2021/08/10 03:23:18;;;;;;;17.65;6.55;;;17.70;99.90;;;;;;5055149;28;20017;-79
2021/08/10 03:25:48;;;;;;;14.55;6.50;;;17.70;99.90;;;;;;5054405;28;20109;-81
2021/08/10 03:28:15;;;;;;;15.43;7.45;;;17.70;99.90;;;;;;5055415;28;20025;-78
2021/08/10 03:30:41;;;;;;;15.77;6.55;;;17.70;99.90;;;;;;5054942;28;20021;-79
2021/08/10 03:33:08;;;;;;;14.15;6.53;;;17.60;99.90;;;;;;5054937;28;20059;-81
2021/08/10 03:35:36;;;;;;;14.88;6.60;;;17.60;99.90;;;;;;5055047;28;20108;-79
2021/08/10 03:38:01;;;;;;;18.63;7.40;;;17.70;99.90;;;;;;5054763;28;20022;-79
2021/08/10 03:40:27;;;;;;;16.70;7.30;;;17.60;99.90;;;;;;5054719;28;20382;-80
2021/08/10 03:42:54;;;;;;;17.38;6.50;;;17.50;99.90;;;;;;5054691;28;20482;-78
2021/08/10 03:45:22;;;;;;;14.75;6.80;;;17.70;99.90;;;;;;5054492;28;20080;-77
2021/08/10 03:47:49;;;;;;;15.02;6.93;;;17.60;99.90;;;;;;5036702;28;20557;-79
2021/08/10 03:50:16;;;;;;;25.00;7.30;;;17.50;99.90;;;;;;5054558;28;20048;-77
2021/08/10 03:52:41;;;;;;;17.90;7.03;;;17.40;99.90;;;;;;5054504;28;20505;-79
2021/08/10 03:55:09;;;;;;;15.75;7.05;;;17.40;99.90;;;;;;5054670;28;20116;-80
2021/08/10 03:57:36;;;;;;;19.25;6.50;;;17.60;99.90;;;;;;5054381;28;20096;-80
2021/08/10 04:00:06;;;;;;;17.08;6.90;;;17.40;99.90;;;;;;5054620;28;20359;-78
2021/08/10 04:02:34;;;;;;;17.13;7.65;;;17.50;99.90;;;;;;5054440;28;20052;-79
2021/08/10 04:04:59;;;;;;;14.50;6.20;;;17.50;99.90;;;;;;5036425;28;20033;-78
2021/08/10 04:07:27;;;;;;;17.60;6.32;;;17.60;99.90;;;;;;5054628;28;20075;-80
2021/08/10 04:09:54;;;;;;;20.45;7.05;;;17.70;99.90;;;;;;5054191;28;20029;-79
2021/08/10 04:12:23;;;;;;;17.13;6.32;;;17.50;99.90;;;;;;5054158;28;20504;-79
2021/08/10 04:14:49;;;;;;;18.25;6.55;;;17.50;99.90;;;;;;5054124;28;20502;-77
2021/08/10 04:17:16;;;;;;;14.05;7.53;;;17.70;99.90;;;;;;5053996;28;20025;-80
2021/08/10 04:19:45;;;;;;;13.65;6.10;;;17.80;99.90;;;;;;5054155;28;20025;-80
2021/08/10 04:22:13;;;;;;;22.50;12.63;;;17.70;99.90;;;;;;5036157;28;20017;-78
2021/08/10 04:24:39;;;;;;;13.88;6.13;;;17.70;99.90;;;;;;5054192;28;20032;-78
2021/08/10 04:27:05;;;;;;;22.05;9.60;;;17.60;99.90;;;;;;5035982;28;20021;-79
2021/08/10 04:29:31;;;;;;;16.88;6.40;;;17.60;99.90;;;;;;5053900;28;20098;-79
2021/08/10 04:31:57;;;;;;;28.83;15.75;;;17.60;99.90;;;;;;5053825;28;20063;-77
2021/08/10 04:34:22;;;;;;;;;;;17.60;99.90;;;;;;5054220;28;20021;-80
2021/08/10 04:36:48;;;;;;;16.02;6.93;;;17.70;99.90;;;;;;5053758;28;19914;-80
2021/08/10 04:39:13;;;;;;;;;;;17.50;99.90;;;;;;5054077;28;20432;-79
2021/08/10 04:41:39;;;;;;;17.00;6.22;;;17.70;99.90;;;;;;5035812;28;19987;-79
2021/08/10 04:44:06;;;;;;;;;;;17.70;99.90;;;;;;5053846;28;20404;-79
2021/08/10 04:46:33;;;;;;;15.93;5.82;;;17.80;99.90;;;;;;5053639;28;20004;-78
2021/08/10 04:49:04;;;;;;;16.55;6.40;;;17.80;99.90;;;;;;5053581;28;20053;-79
2021/08/10 04:51:30;;;;;;;15.77;5.57;;;17.70;99.90;;;;;;5053773;28;20013;-80
2021/08/10 04:53:55;;;;;;;20.20;7.03;;;17.70;99.90;;;;;;5053472;28;20482;-77
2021/08/10 04:56:21;;;;;;;;;;;17.60;99.90;;;;;;5053873;28;20112;-78
2021/08/10 04:58:47;;;;;;;14.23;5.63;;;17.60;99.90;;;;;;5053778;28;20369;-79
2021/08/10 05:01:12;;;;;;;17.60;6.70;;;17.70;99.90;;;;;;5053367;28;20028;-79
2021/08/10 05:03:40;;;;;;;;;;;17.80;99.90;;;;;;5054012;28;20062;-77
2021/08/10 05:06:06;;;;;;;17.65;5.82;;;17.90;99.90;;;;;;5053324;28;20422;-80
2021/08/10 05:08:31;;;;;;;18.02;7.22;;;18.00;99.90;;;;;;5053214;28;20025;-79
2021/08/10 05:10:58;;;;;;;;;;;17.90;99.90;;;;;;5053590;28;20071;-79
2021/08/10 05:13:24;;;;;;;21.67;6.47;;;17.60;99.90;;;;;;5053182;28;19904;-79
2021/08/10 05:15:50;;;;;;;16.52;6.97;;;17.60;99.90;;;;;;5053258;28;20437;-79
2021/08/10 05:18:16;;;;;;;16.67;6.32;;;17.60;99.90;;;;;;5052992;28;20025;-81
2021/08/10 05:20:42;;;;;;;;;;;17.90;99.90;;;;;;5053973;28;20115;-79
2021/08/10 05:23:07;;;;;;;14.73;5.63;;;17.80;99.90;;;;;;5053106;28;19905;-81
2021/08/10 05:25:33;;;;;;;;;;;17.70;99.90;;;;;;5053424;28;20017;-80
2021/08/10 05:27:59;;;;;;;14.52;6.13;;;17.80;99.90;;;;;;5053144;28;19955;-79
2021/08/10 05:30:24;;;;;;;;;;;17.70;99.90;;;;;;5053388;28;20029;-79
2021/08/10 05:32:50;;;;;;;17.15;6.32;;;17.60;99.90;;;;;;5053527;28;19954;-79
2021/08/10 05:35:15;;;;;;;;;;;17.70;99.90;;;;;;5053425;28;20400;-79
2021/08/10 05:37:41;;;;;;;12.48;5.80;;;17.80;99.90;;;;;;5052952;28;19909;-79
2021/08/10 05:40:07;;;;;;;;;;;17.90;99.90;;;;;;5053370;28;20025;-79
2021/08/10 05:42:33;;;;;;;14.65;6.28;;;17.80;99.90;;;;;;5052944;28;20297;-80
2021/08/10 05:44:58;;;;;;;;;;;18.00;99.90;;;;;;5053162;28;20065;-80
2021/08/10 05:47:24;;;;;;;16.42;5.68;;;18.20;99.90;;;;;;5035844;28;20058;-79
2021/08/10 05:49:50;;;;;;;;;;;18.20;99.90;;;;;;5057292;28;20024;-79
2021/08/10 05:52:16;;;;;;;11.13;5.38;;;18.00;99.90;;;;;;5056777;28;19908;-80
2021/08/10 05:54:41;;;;;;;;;;;18.10;99.90;;;;;;5057158;28;20036;-80
2021/08/10 05:57:07;;;;;;;14.45;5.95;;;18.30;99.90;;;;;;5056719;28;20000;-79
2021/08/10 05:59:33;;;;;;;13.50;5.50;;;18.30;99.90;;;;;;5056862;28;20025;-78
2021/08/10 06:01:58;;;;;;;;;;;18.40;99.90;;;;;;5057118;28;20447;-78
2021/08/10 06:04:24;;;;;;;16.10;8.43;;;18.50;99.90;;;;;;5056745;28;19943;-80
2021/08/10 06:06:50;;;;;;;11.23;5.47;;;18.40;99.90;;;;;;5056585;28;20036;-79
2021/08/10 06:09:15;;;;;;;11.27;5.30;;;18.30;99.90;;;;;;5056512;28;20064;-79
2021/08/10 06:11:41;;;;;;;;;;;18.30;99.90;;;;;;5057185;28;20024;-79
2021/08/10 06:14:07;;;;;;;16.83;6.32;;;18.40;99.90;;;;;;5056703;28;19905;-81
2021/08/10 06:16:33;;;;;;;11.82;5.60;;;18.50;99.90;;;;;;5056328;28;20485;-80
2021/08/10 06:18:59;;;;;;;13.80;5.68;;;18.50;99.90;;;;;;5056771;28;20029;-78
2021/08/10 06:21:26;;;;;;;11.20;5.22;;;18.40;99.90;;;;;;5056324;28;20024;-79
2021/08/10 06:23:52;;;;;;;11.88;5.00;;;18.40;99.90;;;;;;5056348;28;20059;-78
2021/08/10 06:26:18;;;;;;;13.73;8.77;;;18.50;99.90;;;;;;5056297;28;20096;-79
2021/08/10 06:28:44;;;;;;;9.73;5.07;;;18.50;99.90;;;;;;5056269;28;20020;-80
2021/08/10 06:31:10;;;;;;;12.52;4.55;;;18.60;99.90;;;;;;5056569;28;20036;-80
2021/08/10 06:33:36;;;;;;;10.63;4.97;;;18.90;99.90;;;;;;5056183;28;20485;-80
2021/08/10 06:36:02;;;;;;;8.80;4.70;;;18.90;99.90;;;;;;5055986;28;20501;-79
2021/08/10 06:38:28;;;;;;;10.07;4.82;;;18.90;99.90;;;;;;5055892;28;20021;-79
2021/08/10 06:40:53;;;;;;;12.15;5.75;;;19.00;99.90;;;;;;5055915;28;20025;-82
2021/08/10 06:43:19;;;;;;;12.82;4.60;;;18.90;99.90;;;;;;5055959;28;20476;-79
2021/08/10 06:45:45;;;;;;;9.82;4.78;;;18.90;99.90;;;;;;5055655;28;20114;-79
2021/08/10 06:48:11;;;;;;;10.73;5.03;;;19.10;99.90;;;;;;5055773;28;20063;-80
2021/08/10 06:50:36;;;;;;;12.73;8.15;;;19.40;99.90;;;;;;5055747;28;20100;-80
2021/08/10 06:53:02;;;;;;;10.95;4.40;;;19.50;99.90;;;;;;5056244;28;20095;-79
2021/08/10 06:55:28;;;;;;;15.98;9.25;;;19.50;99.90;;;;;;5055673;28;20550;-80
2021/08/10 06:57:54;;;;;;;10.13;4.53;;;19.10;99.90;;;;;;5055537;28;20029;-81
2021/08/10 07:00:20;;;;;;;8.45;4.40;;;19.30;99.90;;;;;;5054344;28;20044;-81
2021/08/10 07:02:46;;;;;;;9.43;4.20;;;19.20;99.90;;;;;;5055535;28;20074;-79
2021/08/10 07:05:11;;;;;;;7.70;4.20;;;19.20;99.90;;;;;;5055418;28;20339;-79
2021/08/10 07:07:37;;;;;;;6.80;4.00;;;19.50;99.90;;;;;;5055425;28;20024;-79
2021/08/10 07:10:04;;;;;;;9.50;3.97;;;19.90;99.90;;;;;;5055940;28;20029;-80
2021/08/10 07:12:30;;;;;;;8.65;4.28;;;19.80;99.90;;;;;;5054756;28;20029;-80
2021/08/10 07:14:55;;;;;;;9.25;4.18;;;20.10;99.90;;;;;;5055296;28;20426;-79
2021/08/10 07:17:21;;;;;;;6.85;4.68;;;20.00;99.90;;;;;;5055598;28;20025;-80
2021/08/10 07:19:47;;;;;;;8.13;7.18;;;20.10;99.90;;;;;;5055215;28;20104;-79
2021/08/10 07:22:13;;;;;;;10.48;9.30;;;20.30;99.90;;;;;;5055201;28;20032;-80
2021/08/10 07:24:38;;;;;;;11.23;6.57;;;20.40;99.90;;;;;;5055069;28;20390;-80
2021/08/10 07:27:04;;;;;;;8.07;4.60;;;20.20;99.90;;;;;;5055020;28;20029;-81
2021/08/10 07:29:30;;;;;;;8.55;5.25;;;19.90;99.90;;;;;;5037209;28;20060;-79
2021/08/10 07:31:56;;;;;;;8.13;4.28;;;19.90;99.90;;;;;;5054718;28;20024;-79
2021/08/10 07:34:22;;;;;;;5.72;4.10;;;19.80;99.90;;;;;;5054843;28;20025;-79
2021/08/10 07:36:48;;;;;;;9.10;4.95;;;19.90;99.90;;;;;;5054795;28;20052;-80
2021/08/10 07:39:14;;;;;;;9.20;8.18;;;20.00;99.90;;;;;;5054821;28;20473;-80
2021/08/10 07:41:40;;;;;;;7.03;4.20;;;20.10;99.90;;;;;;5054757;28;20021;-80
2021/08/10 07:44:06;;;;;;;10.68;4.20;;;19.70;99.90;;;;;;5054536;28;20048;-80
2021/08/10 07:46:32;;;;;;;7.13;4.93;;;19.70;99.90;;;;;;5054941;28;20021;-80
2021/08/10 07:48:58;;;;;;;9.63;5.13;;;19.90;99.90;;;;;;5054666;28;20147;-80
2021/08/10 07:51:24;;;;;;;9.50;8.10;;;20.30;99.90;;;;;;5054572;28;20025;-80
2021/08/10 07:53:50;;;;;;;13.63;11.18;;;20.30;99.90;;;;;;5054906;28;20025;-79
2021/08/10 07:56:15;;;;;;;11.90;10.68;;;20.30;99.90;;;;;;5054478;28;20599;-79
2021/08/10 07:58:42;;;;;;;52.80;36.83;;;20.10;99.90;;;;;;5054389;28;20060;-79
2021/08/10 08:01:07;;;;;;;7.80;6.13;;;20.00;99.90;;;;;;5054410;28;20100;-79
2021/08/10 08:03:34;;;;;;;10.68;9.57;;;20.30;99.90;;;;;;5054386;28;20147;-80
2021/08/10 08:05:59;;;;;;;10.80;9.70;;;20.30;99.90;;;;;;5054622;28;20013;-79
2021/08/10 08:08:27;;;;;;;23.13;19.27;;;20.10;99.90;;;;;;5054274;28;20029;-78
2021/08/10 08:10:53;;;;;;;18.23;16.58;;;20.00;99.90;;;;;;5053864;28;20029;-78
2021/08/10 08:13:20;;;;;;;11.93;10.60;;;20.50;99.90;;;;;;5054231;28;20029;-77
2021/08/10 08:15:47;;;;;;;24.35;22.17;;;20.60;99.90;;;;;;5054117;28;20025;-78
2021/08/10 08:18:12;;;;;;;32.30;27.15;;;20.40;99.90;;;;;;5054094;28;20029;-78
2021/08/10 08:20:38;;;;;;;17.98;16.38;;;20.90;99.90;;;;;;5054061;28;20551;-79
2021/08/10 08:23:04;;;;;;;11.80;10.80;;;20.90;99.90;;;;;;5053951;28;20087;-78
2021/08/10 08:25:30;;;;;;;41.85;32.30;;;20.90;99.90;;;;;;5053941;28;20092;-77
2021/08/10 08:27:56;;;;;;;9.30;7.43;;;21.10;99.90;;;;;;5035971;28;20032;-78
2021/08/10 08:30:22;;;;;;;10.02;7.80;;;21.10;99.90;;;;;;5054035;28;20028;-77
2021/08/10 08:32:48;;;;;;;10.45;7.60;;;21.40;99.90;;;;;;5053834;28;20029;-77
2021/08/10 08:35:13;;;;;;;12.30;11.07;;;21.20;99.90;;;;;;5053804;28;20025;-76
2021/08/10 08:37:39;;;;;;;9.55;7.57;;;21.10;99.90;;;;;;5053666;28;20031;-76
2021/08/10 08:40:07;;;;;;;13.73;12.48;;;21.20;99.90;;;;;;5053728;28;20028;-77
2021/08/10 08:42:34;;;;;;;11.48;7.68;;;21.30;99.90;;;;;;5053856;28;20131;-77
2021/08/10 08:45:00;;;;;;;8.52;7.53;;;21.70;99.90;;;;;;5055191;28;20037;-77
2021/08/10 08:47:26;;;;;;;9.00;7.63;;;21.20;99.90;;;;;;5053814;28;20489;-78
2021/08/10 08:49:58;;;;;;;11.20;6.32;;;21.30;99.90;;;;;;5053394;28;20135;-76
2021/08/10 08:52:27;;;;;;;7.70;5.88;;;21.30;99.90;;;;;;5053597;28;20029;-77
2021/08/10 08:54:55;;;;;;;9.70;7.28;;;21.60;99.90;;;;;;5053467;28;20033;-77
2021/08/10 08:57:21;;;;;;;7.57;5.38;;;22.00;99.90;;;;;;5053336;28;20024;-76
2021/08/10 08:59:47;;;;;;;7.13;5.25;;;22.30;99.90;;;;;;5053377;28;20021;-77
2021/08/10 09:02:17;;;;;;;9.13;7.78;;;22.20;99.90;;;;;;5053865;28;20541;-78
2021/08/10 09:04:47;;;;;;;10.02;9.05;;;22.00;99.90;;;;;;5035419;28;20112;-79
2021/08/10 09:07:13;;;;;;;8.30;7.38;;;22.00;99.90;;;;;;5035430;28;20025;-77
2021/08/10 09:09:39;;;;;;;9.25;7.30;;;22.50;99.90;;;;;;5053246;28;20057;-78
2021/08/10 09:12:11;;;;;;;6.93;4.63;;;22.50;99.90;;;;;;5053223;28;20028;-77
2021/08/10 09:14:47;;;;;;;8.57;7.60;;;22.90;99.90;;;;;;5053186;28;20108;-76
2021/08/10 09:17:21;;;;;;;33.00;24.85;;;22.50;99.90;;;;;;5053100;28;20017;-77
2021/08/10 09:19:52;;;;;;;7.40;6.60;;;22.30;99.90;;;;;;5053265;28;20049;-78
2021/08/10 09:22:23;;;;;;;25.50;20.50;;;22.20;99.90;;;;;;5052564;28;20029;-77
2021/08/10 09:24:55;;;;;;;27.05;22.88;;;21.90;99.90;;;;;;5053295;28;20032;-78
2021/08/10 09:27:38;;;;;;;11.50;9.13;;;21.80;99.90;;;;;;5053388;28;20040;-78
2021/08/10 09:30:15;;;;;;;8.00;7.05;;;21.90;99.90;;;;;;5053353;28;20025;-77
2021/08/10 09:33:02;;;;;;;23.67;21.35;;;22.40;99.90;;;;;;5053206;28;20040;-77
2021/08/10 09:35:37;;;;;;;10.07;9.05;;;22.60;99.90;;;;;;5053138;28;20018;-77
2021/08/10 09:38:07;;;;;;;6.82;5.35;;;23.50;99.90;;;;;;5052921;28;20375;-77
2021/08/10 09:40:38;;;;;;;20.02;18.10;;;24.70;99.90;;;;;;5052947;28;20025;-78
2021/08/10 09:43:26;;;;;;;9.77;8.88;;;24.40;99.90;;;;;;5053059;28;20028;-76
2021/08/10 09:46:12;;;;;;;13.35;12.27;;;25.10;99.90;;;;;;5052582;28;20044;-77
2021/08/10 09:48:39;;;;;;;11.07;9.98;;;26.40;99.90;;;;;;5035010;28;20083;-78
2021/08/10 09:51:13;;;;;;;14.65;13.45;;;26.10;99.90;;;;;;5052815;28;20370;-78
2021/08/10 09:53:41;;;;;;;16.13;14.82;;;25.60;99.90;;;;;;5052789;28;20508;-78
2021/08/10 09:56:07;;;;;;;13.85;12.50;;;25.20;99.90;;;;;;5052750;28;20545;-78
2021/08/10 09:58:58;;;;;;;10.80;8.13;;;23.90;99.90;;;;;;5052921;28;20420;-78
2021/08/10 10:01:38;;;;;;;7.35;5.22;;;23.80;99.90;;;;;;5052829;28;20071;-77
2021/08/10 10:04:13;;;;;;;6.75;5.03;;;23.90;99.90;;;;;;5052682;28;20468;-79
2021/08/10 10:06:40;;;;;;;13.20;11.73;;;23.70;99.90;;;;;;5034611;28;20032;-78
2021/08/10 10:09:05;;;;;;;18.83;16.08;;;22.80;99.90;;;;;;5052697;28;20033;-79
2021/08/10 10:11:36;;;;;;;10.77;6.90;;;22.70;99.90;;;;;;5052949;28;20032;-78
2021/08/10 10:14:03;;;;;;;7.07;4.95;;;22.50;99.90;;;;;;5053181;28;20064;-78
2021/08/10 10:16:32;;;;;;;13.75;11.32;;;23.20;99.90;;;;;;5052627;28;20032;-77
2021/08/10 10:19:09;;;;;;;6.90;5.25;;;23.10;99.90;;;;;;5052502;28;20158;-79
2021/08/10 10:21:40;;;;;;;10.23;5.57;;;24.80;99.90;;;;;;5034485;28;20028;-78
2021/08/10 10:24:07;;;;;;;8.88;6.40;;;26.60;99.90;;;;;;5052504;28;20553;-78
2021/08/10 10:26:39;;;;;;;11.52;6.90;;;27.60;99.90;;;;;;5034693;28;20036;-78
2021/08/10 10:29:04;;;;;;;9.88;5.32;;;27.50;99.90;;;;;;5053143;28;20025;-78
2021/08/10 10:31:32;;;;;;;11.38;6.13;;;26.70;99.90;;;;;;5052774;28;20025;-78
2021/08/10 10:33:59;;;;;;;7.03;4.90;;;26.40;99.90;;;;;;5054307;28;20024;-78
2021/08/10 10:36:25;;;;;;;7.03;4.85;;;25.60;99.90;;;;;;5055986;28;20096;-78
2021/08/10 10:38:54;;;;;;;7.57;5.10;;;25.70;99.90;;;;;;5055951;28;20107;-78
2021/08/10 10:41:23;;;;;;;6.13;4.70;;;25.20;99.90;;;;;;5038073;28;20494;-76
2021/08/10 10:43:53;;;;;;;7.60;6.43;;;24.70;99.90;;;;;;5055910;28;20074;-78
2021/08/10 10:46:30;;;;;;;8.55;6.53;;;24.90;99.90;;;;;;5075899;28;20090;-78
2021/08/10 10:48:57;;;;;;;6.97;5.45;;;23.70;99.90;;;;;;5076430;28;20017;-78
2021/08/10 10:51:26;;;;;;;7.35;4.68;;;23.40;99.90;;;;;;5076101;28;20457;-78
2021/08/10 10:53:52;;;;;;;6.50;5.18;;;23.60;99.90;;;;;;5075725;28;20020;-77
2021/08/10 10:56:27;;;;;;;6.85;4.93;;;23.20;99.90;;;;;;5075979;28;20029;-77
2021/08/10 10:58:55;;;;;;;8.57;4.30;;;22.70;99.90;;;;;;5057610;28;20394;-79
2021/08/10 11:01:30;;;;;;;9.20;5.95;;;22.50;99.90;;;;;;5075825;28;20366;-77
2021/08/10 11:04:06;;;;;;;6.80;4.82;;;22.60;99.90;;;;;;5075740;28;20095;-78
2021/08/10 11:06:43;;;;;;;8.18;5.22;;;23.00;99.90;;;;;;5075484;28;20482;-77
2021/08/10 11:09:30;;;;;;;9.63;5.55;;;23.10;99.90;;;;;;5057227;28;20025;-78
2021/08/10 11:11:56;;;;;;;7.72;5.63;;;23.00;99.90;;;;;;5057271;28;20029;-77
2021/08/10 11:14:36;;;;;;;10.90;8.10;;;23.70;99.90;;;;;;5075856;28;20028;-78
2021/08/10 11:17:08;;;;;;;11.95;10.90;;;24.20;99.90;;;;;;5057295;28;20115;-78
2021/08/10 11:19:37;;;;;;;8.23;6.28;;;24.80;99.90;;;;;;5075258;28;20051;-78
2021/08/10 11:22:14;;;;;;;8.68;7.78;;;25.90;99.90;;;;;;5075204;28;20096;-78
2021/08/10 11:24:45;;;;;;;9.02;8.10;;;26.60;99.90;;;;;;5075058;28;20031;-78
2021/08/10 11:27:29;;;;;;;19.85;18.10;;;26.50;99.90;;;;;;5075391;28;20104;-79
2021/08/10 11:29:55;;;;;;;32.42;30.00;;;26.60;99.00;;;;;;5075272;28;20021;-78
2021/08/10 11:32:37;;;;;;;24.88;23.00;;;29.00;97.30;;;;;;5074994;28;20028;-78
2021/08/10 11:35:35;;;;;;;11.07;10.07;;;28.70;94.60;;;;;;5075001;28;20025;-79
2021/08/10 11:38:07;;;;;;;7.97;6.28;;;29.40;94.30;;;;;;5045202;28;20040;-77
2021/08/10 11:41:01;;;;;;;10.38;9.43;;;29.40;93.80;;;;;;5074894;28;20042;-78
2021/08/10 11:43:42;;;;;;;8.48;7.57;;;28.40;91.80;;;;;;5065971;28;20033;-78
2021/08/10 11:46:32;;;;;;;9.95;6.05;;;26.50;95.60;;;;;;5054948;28;20124;-78
2021/08/10 11:49:07;;;;;;;8.00;6.63;;;26.10;97.60;;;;;;5036526;28;20029;-77
2021/08/10 11:51:37;;;;;;;7.55;6.53;;;25.20;99.10;;;;;;5055184;28;20130;-78
2021/08/10 11:54:10;;;;;;;10.32;9.32;;;25.20;99.80;;;;;;5054929;28;20054;-78
2021/08/10 11:56:38;;;;;;;8.15;5.95;;;25.20;99.30;;;;;;5054559;28;20025;-78
2021/08/10 11:59:05;;;;;;;8.05;6.43;;;25.50;99.60;;;;;;5054433;28;20025;-79
2021/08/10 12:01:36;;;;;;;7.70;6.90;;;24.90;99.90;;;;;;5054416;28;20092;-78
2021/08/10 12:04:15;;;;;;;8.98;7.00;;;25.20;99.40;;;;;;5054438;28;20023;-78
2021/08/10 12:06:43;;;;;;;7.93;7.07;;;27.30;97.40;;;;;;5054340;28;20028;-79
2021/08/10 12:09:21;;;;;;;7.57;6.55;;;27.60;95.80;;;;;;5054366;28;20385;-78
2021/08/10 12:11:55;;;;;;;9.25;8.07;;;27.70;95.90;;;;;;5054586;28;20017;-78
2021/08/10 12:14:26;;;;;;;13.63;12.30;;;26.70;96.40;;;;;;5054595;28;20040;-79
2021/08/10 12:17:01;;;;;;;13.82;12.63;;;26.90;95.80;;;;;;5036008;28;20057;-78
2021/08/10 12:19:40;;;;;;;18.35;16.75;;;25.60;97.10;;;;;;5054295;28;20025;-78
2021/08/10 12:22:18;;;;;;;14.55;13.07;;;24.70;99.70;;;;;;5036145;28;20162;-78
2021/08/10 12:24:45;;;;;;;14.25;12.43;;;24.40;99.90;;;;;;5054044;28;20060;-78
2021/08/10 12:27:13;;;;;;;6.35;4.35;;;24.10;99.90;;;;;;5036103;28;20535;-77
2021/08/10 12:29:44;;;;;;;10.02;8.88;;;24.20;99.90;;;;;;5053964;28;20017;-79
2021/08/10 12:32:12;;;;;;;8.57;4.93;;;24.70;99.90;;;;;;5053921;28;20116;-78
2021/08/10 12:34:40;;;;;;;8.85;5.50;;;24.90;99.90;;;;;;5053975;28;20021;-78
2021/08/10 12:37:07;;;;;;;6.60;4.68;;;25.70;99.90;;;;;;5053815;28;20045;-78
2021/08/10 12:39:41;;;;;;;8.27;5.25;;;26.10;99.60;;;;;;5053713;28;20017;-79
2021/08/10 12:42:08;;;;;;;14.88;12.32;;;25.80;99.10;;;;;;5054020;28;20044;-77
2021/08/10 12:44:35;;;;;;;24.27;15.18;;;24.60;98.80;;;;;;5043629;28;20508;-77
2021/08/10 12:47:04;;;;;;;8.68;4.80;;;24.70;99.90;;;;;;5072338;28;20032;-77
2021/08/10 12:49:38;;;;;;;11.55;5.68;;;25.70;99.80;;;;;;5073579;28;20023;-78
2021/08/10 12:52:10;;;;;;;9.20;5.50;;;25.70;99.90;;;;;;5073538;28;20052;-78